createdAt,value
2018-03-17T00:09:17.913Z,1002
2018-03-17T00:19:32.987Z,1001.9
2018-03-17T00:29:47.848Z,1001.8
2018-03-17T00:40:01.854Z,1001.7
2018-03-17T00:50:17.299Z,1001.8
2018-03-17T01:00:31.865Z,1001.9
2018-03-17T01:10:46.095Z,1001.9
2018-03-17T01:21:00.588Z,1001.9
2018-03-17T01:31:15.390Z,1001.9
2018-03-17T01:41:29.125Z,1001.9
2018-03-17T01:51:44.058Z,1001.9
2018-03-17T02:01:58.268Z,1001.9
2018-03-17T02:12:11.884Z,1002
2018-03-17T02:22:26.537Z,1002
2018-03-17T02:32:41.766Z,1002
2018-03-17T02:42:55.369Z,1001.9
2018-03-17T02:53:10.763Z,1001.8
2018-03-17T03:03:26.200Z,1001.7
2018-03-17T03:13:41.759Z,1001.7
2018-03-17T03:23:57.076Z,1001.9
2018-03-17T03:34:12.160Z,1001.8
2018-03-17T03:44:26.047Z,1001.7
2018-03-17T03:54:39.702Z,1001.7
2018-03-17T04:04:53.693Z,1001.7
2018-03-17T04:15:07.596Z,1001.7
2018-03-17T04:25:21.901Z,1001.7
2018-03-17T04:35:37.005Z,1001.8
2018-03-17T04:45:52.421Z,1001.9
2018-03-17T04:56:07.378Z,1001.9
2018-03-17T05:06:21.401Z,1002
2018-03-17T05:16:36.583Z,1001.9
2018-03-17T05:26:51.365Z,1001.8
2018-03-17T05:37:06.756Z,1001.8
2018-03-17T05:47:21.229Z,1001.8
2018-03-17T05:57:36.055Z,1001.8
2018-03-17T06:07:50.145Z,1001.8
2018-03-17T06:18:05.185Z,1001.9
2018-03-17T06:28:19.457Z,1002
2018-03-17T06:38:34.843Z,1002
2018-03-17T06:48:50.324Z,1001.9
2018-03-17T06:59:04.168Z,1002
2018-03-17T07:09:18.842Z,1002.1
2018-03-17T07:19:33.354Z,1002.2
2018-03-17T07:29:48.830Z,1002.3
2018-03-17T07:40:03.491Z,1002.2
2018-03-17T07:50:18.647Z,1002.2
2018-03-17T08:00:32.326Z,1002.3
2018-03-17T08:10:47.168Z,1002.4
2018-03-17T08:21:02.062Z,1002.3
2018-03-17T08:31:15.706Z,1002.4
2018-03-17T08:41:30.269Z,1002.4
2018-03-17T08:51:44.338Z,1002.5
2018-03-17T09:01:59.578Z,1002.5
2018-03-17T09:12:15.162Z,1002.6
2018-03-17T09:22:29.362Z,1002.4
2018-03-17T09:32:44.533Z,1002.5
2018-03-17T09:42:58.124Z,1002.3
2018-03-17T09:53:13.953Z,1002.6
2018-03-17T10:03:27.823Z,1002.4
2018-03-17T10:13:43.255Z,1002.3
2018-03-17T10:23:57.261Z,1002.3
2018-03-17T10:34:12.251Z,1002.4
2018-03-17T10:44:26.825Z,1002.2
2018-03-17T10:54:40.889Z,1002.5
2018-03-17T11:04:55.714Z,1002.2
2018-03-17T11:15:09.915Z,1002.3
2018-03-17T11:25:25.251Z,1002.6
2018-03-17T11:35:39.128Z,1002.4
2018-03-17T11:45:53.322Z,1002.1
2018-03-17T11:56:08.058Z,1002.1
2018-03-17T12:06:22.564Z,1002.1
2018-03-17T12:16:38.125Z,1002
2018-03-17T12:26:52.681Z,1001.9
2018-03-17T12:37:07.425Z,1002
2018-03-17T12:47:21.128Z,1001.9
2018-03-17T12:57:35.995Z,1001.7
2018-03-17T13:07:50.042Z,1001.5
2018-03-17T13:18:04.893Z,1001.6
2018-03-17T13:28:19.779Z,1001.2
2018-03-17T13:38:34.608Z,1001.3
2018-03-17T13:48:49.532Z,1001.3
2018-03-17T13:59:04.763Z,1001.3
2018-03-17T14:09:18.991Z,1001.5
2018-03-17T14:19:33.172Z,1001.4
2018-03-17T14:29:48.627Z,1001.4
2018-03-17T14:40:02.390Z,1001.2
2018-03-17T14:50:17.914Z,1001.1
2018-03-17T15:00:32.468Z,1001.2
2018-03-17T15:10:47.407Z,1001.2
2018-03-17T15:21:02.311Z,1001.2
2018-03-17T15:31:17.736Z,1001.1
2018-03-17T15:41:31.719Z,1001.3
2018-03-17T15:51:46.456Z,1001
2018-03-17T16:02:02.043Z,1001.1
2018-03-17T16:12:16.718Z,1001.1
2018-03-17T16:22:31.800Z,1001.3
2018-03-17T16:32:47.335Z,1001.4
2018-03-17T16:43:02.819Z,1001.4
2018-03-17T16:53:18.206Z,1001.4
2018-03-17T17:03:33.290Z,1001.4
2018-03-17T17:13:47.065Z,1001.6
2018-03-17T17:24:01.332Z,1001.5
2018-03-17T17:34:16.785Z,1001.7
2018-03-17T17:44:31.168Z,1001.9
2018-03-17T17:54:44.837Z,1001.9
2018-03-17T18:04:58.595Z,1002.1
2018-03-17T18:15:13.366Z,1002
2018-03-17T18:25:28.044Z,1002
2018-03-17T18:35:42.324Z,1002.1
2018-03-17T18:45:56.831Z,1002.1
2018-03-17T18:56:11.262Z,1002.1
2018-03-17T19:06:25.925Z,1002.2
2018-03-17T19:16:40.384Z,1002.2
2018-03-17T19:26:55.590Z,1002.3
2018-03-17T19:37:09.557Z,1002.4
2018-03-17T19:47:23.648Z,1002.4
2018-03-17T19:57:38.130Z,1002.3
2018-03-17T20:07:52.051Z,1002.4
2018-03-17T20:18:05.737Z,1002.3
2018-03-17T20:28:21.148Z,1002.4
2018-03-17T20:38:36.089Z,1002.5
2018-03-17T20:48:50.731Z,1002.5
2018-03-17T20:59:04.733Z,1002.4
2018-03-17T21:09:19.013Z,1002.6
2018-03-17T21:19:32.898Z,1002.6
2018-03-17T21:29:48.484Z,1002.6
2018-03-17T21:40:02.181Z,1002.7
2018-03-17T21:50:17.824Z,1002.9
2018-03-17T22:00:32.871Z,1002.8
2018-03-17T22:10:48.333Z,1002.6
2018-03-17T22:21:02.444Z,1002.7
2018-03-17T22:31:17.389Z,1002.7
2018-03-17T22:41:30.994Z,1002.7
2018-03-17T22:51:46.061Z,1002.8
2018-03-17T23:02:00.814Z,1002.7
2018-03-17T23:12:16.233Z,1002.8
2018-03-17T23:22:30.146Z,1002.8
2018-03-17T23:32:44.689Z,1002.8
2018-03-17T23:42:59.621Z,1002.7
2018-03-17T23:53:13.768Z,1002.6
